sensor_id;sensor_type;location;lat;lon;timestamp;temperature;humidity
59923;DHT22;45778;51.142;3.732;2023-12-28T00:02:06;10.50;99.90
59923;DHT22;45778;51.142;3.732;2023-12-28T00:04:32;10.40;99.90
59923;DHT22;45778;51.142;3.732;2023-12-28T00:07:01;10.40;99.90
59923;DHT22;45778;51.142;3.732;2023-12-28T00:09:27;10.50;99.90
59923;DHT22;45778;51.142;3.732;2023-12-28T00:11:53;10.50;99.90
59923;DHT22;45778;51.142;3.732;2023-12-28T00:14:18;10.40;99.90
59923;DHT22;45778;51.142;3.732;2023-12-28T00:16:44;10.50;99.90
59923;DHT22;45778;51.142;3.732;2023-12-28T00:19:10;10.50;99.90
59923;DHT22;45778;51.142;3.732;2023-12-28T00:21:35;10.50;99.90
59923;DHT22;45778;51.142;3.732;2023-12-28T00:24:01;10.50;99.90
59923;DHT22;45778;51.142;3.732;2023-12-28T00:26:27;10.60;99.90
59923;DHT22;45778;51.142;3.732;2023-12-28T00:28:52;10.60;99.90
59923;DHT22;45778;51.142;3.732;2023-12-28T00:31:18;10.50;99.90
59923;DHT22;45778;51.142;3.732;2023-12-28T00:33:43;10.60;99.90
59923;DHT22;45778;51.142;3.732;2023-12-28T00:36:09;10.60;99.90
59923;DHT22;45778;51.142;3.732;2023-12-28T00:38:35;10.60;99.90
59923;DHT22;45778;51.142;3.732;2023-12-28T00:41:00;10.60;99.90
59923;DHT22;45778;51.142;3.732;2023-12-28T00:43:26;10.60;99.90
59923;DHT22;45778;51.142;3.732;2023-12-28T00:45:52;10.60;99.90
59923;DHT22;45778;51.142;3.732;2023-12-28T00:48:18;10.60;99.90
59923;DHT22;45778;51.142;3.732;2023-12-28T00:50:43;10.60;99.90
59923;DHT22;45778;51.142;3.732;2023-12-28T00:53:09;10.60;99.90
59923;DHT22;45778;51.142;3.732;2023-12-28T00:55:35;10.50;99.90
59923;DHT22;45778;51.142;3.732;2023-12-28T00:58:00;10.60;99.90
59923;DHT22;45778;51.142;3.732;2023-12-28T01:00:26;10.50;99.90
59923;DHT22;45778;51.142;3.732;2023-12-28T01:02:51;10.50;99.90
59923;DHT22;45778;51.142;3.732;2023-12-28T01:05:17;10.50;99.90
59923;DHT22;45778;51.142;3.732;2023-12-28T01:07:43;10.50;99.90
59923;DHT22;45778;51.142;3.732;2023-12-28T01:10:09;10.50;99.90
59923;DHT22;45778;51.142;3.732;2023-12-28T01:12:34;10.50;99.90
59923;DHT22;45778;51.142;3.732;2023-12-28T01:15:00;10.50;99.90
59923;DHT22;45778;51.142;3.732;2023-12-28T01:17:26;10.50;99.90
59923;DHT22;45778;51.142;3.732;2023-12-28T01:19:51;10.50;99.90
59923;DHT22;45778;51.142;3.732;2023-12-28T01:22:17;10.50;99.90
59923;DHT22;45778;51.142;3.732;2023-12-28T01:24:46;10.50;99.90
59923;DHT22;45778;51.142;3.732;2023-12-28T01:27:12;10.50;99.90
59923;DHT22;45778;51.142;3.732;2023-12-28T01:29:38;10.50;99.90
59923;DHT22;45778;51.142;3.732;2023-12-28T01:32:04;10.50;99.90
59923;DHT22;45778;51.142;3.732;2023-12-28T01:34:29;10.40;99.90
59923;DHT22;45778;51.142;3.732;2023-12-28T01:36:55;10.50;99.90
59923;DHT22;45778;51.142;3.732;2023-12-28T01:39:21;10.50;99.90
59923;DHT22;45778;51.142;3.732;2023-12-28T01:41:46;10.50;99.90
59923;DHT22;45778;51.142;3.732;2023-12-28T01:44:12;10.50;99.90
59923;DHT22;45778;51.142;3.732;2023-12-28T01:46:38;10.40;99.90
59923;DHT22;45778;51.142;3.732;2023-12-28T01:49:05;10.40;99.90
59923;DHT22;45778;51.142;3.732;2023-12-28T01:51:31;10.40;99.90
59923;DHT22;45778;51.142;3.732;2023-12-28T01:53:57;10.40;99.90
59923;DHT22;45778;51.142;3.732;2023-12-28T01:56:23;10.40;99.90
59923;DHT22;45778;51.142;3.732;2023-12-28T01:58:50;10.40;99.90
59923;DHT22;45778;51.142;3.732;2023-12-28T02:01:18;10.40;99.90
59923;DHT22;45778;51.142;3.732;2023-12-28T02:03:44;10.40;99.90
59923;DHT22;45778;51.142;3.732;2023-12-28T02:06:11;10.40;99.90
59923;DHT22;45778;51.142;3.732;2023-12-28T02:08:38;10.40;99.90
59923;DHT22;45778;51.142;3.732;2023-12-28T02:11:04;10.50;99.90
59923;DHT22;45778;51.142;3.732;2023-12-28T02:13:30;10.40;99.90
59923;DHT22;45778;51.142;3.732;2023-12-28T02:16:03;10.40;99.90
59923;DHT22;45778;51.142;3.732;2023-12-28T02:18:42;10.40;99.90
59923;DHT22;45778;51.142;3.732;2023-12-28T02:21:08;10.40;99.90
59923;DHT22;45778;51.142;3.732;2023-12-28T02:23:34;10.40;99.90
59923;DHT22;45778;51.142;3.732;2023-12-28T02:26:00;10.40;99.90
59923;DHT22;45778;51.142;3.732;2023-12-28T02:28:26;10.40;99.90
59923;DHT22;45778;51.142;3.732;2023-12-28T02:30:52;10.40;99.90
59923;DHT22;45778;51.142;3.732;2023-12-28T02:33:32;10.50;99.90
59923;DHT22;45778;51.142;3.732;2023-12-28T02:36:02;10.40;99.90
59923;DHT22;45778;51.142;3.732;2023-12-28T02:38:33;10.40;99.90
59923;DHT22;45778;51.142;3.732;2023-12-28T02:41:00;10.40;99.90
59923;DHT22;45778;51.142;3.732;2023-12-28T02:43:27;10.50;99.90
59923;DHT22;45778;51.142;3.732;2023-12-28T02:45:53;10.40;99.90
59923;DHT22;45778;51.142;3.732;2023-12-28T02:48:18;10.40;99.90
59923;DHT22;45778;51.142;3.732;2023-12-28T02:50:44;10.40;99.90
59923;DHT22;45778;51.142;3.732;2023-12-28T02:53:09;10.40;99.90
59923;DHT22;45778;51.142;3.732;2023-12-28T02:55:35;10.40;99.90
59923;DHT22;45778;51.142;3.732;2023-12-28T02:58:01;10.40;99.90
59923;DHT22;45778;51.142;3.732;2023-12-28T03:00:27;10.40;99.90
59923;DHT22;45778;51.142;3.732;2023-12-28T03:02:53;10.50;99.90
59923;DHT22;45778;51.142;3.732;2023-12-28T03:05:19;10.40;99.90
59923;DHT22;45778;51.142;3.732;2023-12-28T03:07:44;10.50;99.90
59923;DHT22;45778;51.142;3.732;2023-12-28T03:10:11;10.40;99.90
59923;DHT22;45778;51.142;3.732;2023-12-28T03:12:37;10.40;99.90
59923;DHT22;45778;51.142;3.732;2023-12-28T03:15:04;10.40;99.90
59923;DHT22;45778;51.142;3.732;2023-12-28T03:17:30;10.30;99.90
59923;DHT22;45778;51.142;3.732;2023-12-28T03:19:58;10.30;99.90
59923;DHT22;45778;51.142;3.732;2023-12-28T03:22:23;10.30;99.90
59923;DHT22;45778;51.142;3.732;2023-12-28T03:24:49;10.30;99.90
59923;DHT22;45778;51.142;3.732;2023-12-28T03:27:15;10.20;99.90
59923;DHT22;45778;51.142;3.732;2023-12-28T03:29:43;10.30;99.90
59923;DHT22;45778;51.142;3.732;2023-12-28T03:32:09;10.30;99.90
59923;DHT22;45778;51.142;3.732;2023-12-28T03:34:35;10.30;99.90
59923;DHT22;45778;51.142;3.732;2023-12-28T03:37:01;10.30;99.90
59923;DHT22;45778;51.142;3.732;2023-12-28T03:39:27;10.30;99.90
59923;DHT22;45778;51.142;3.732;2023-12-28T03:41:52;10.30;99.90
59923;DHT22;45778;51.142;3.732;2023-12-28T03:44:22;10.40;99.90
59923;DHT22;45778;51.142;3.732;2023-12-28T03:46:48;10.40;99.90
59923;DHT22;45778;51.142;3.732;2023-12-28T03:49:20;10.40;99.90
59923;DHT22;45778;51.142;3.732;2023-12-28T03:51:47;10.40;99.90
59923;DHT22;45778;51.142;3.732;2023-12-28T03:54:16;10.30;99.90
59923;DHT22;45778;51.142;3.732;2023-12-28T03:56:42;10.40;99.90
59923;DHT22;45778;51.142;3.732;2023-12-28T03:59:09;10.40;99.90
59923;DHT22;45778;51.142;3.732;2023-12-28T04:01:35;10.40;99.90
59923;DHT22;45778;51.142;3.732;2023-12-28T04:04:00;10.50;99.90
59923;DHT22;45778;51.142;3.732;2023-12-28T04:06:26;10.50;99.90
59923;DHT22;45778;51.142;3.732;2023-12-28T04:08:52;10.60;99.90
59923;DHT22;45778;51.142;3.732;2023-12-28T04:11:18;10.60;99.90
59923;DHT22;45778;51.142;3.732;2023-12-28T04:13:44;10.70;99.90
59923;DHT22;45778;51.142;3.732;2023-12-28T04:16:16;10.60;99.90
59923;DHT22;45778;51.142;3.732;2023-12-28T04:18:42;10.60;99.90
59923;DHT22;45778;51.142;3.732;2023-12-28T04:21:09;10.60;99.90
59923;DHT22;45778;51.142;3.732;2023-12-28T04:23:36;10.50;99.90
59923;DHT22;45778;51.142;3.732;2023-12-28T04:26:02;10.50;99.90
59923;DHT22;45778;51.142;3.732;2023-12-28T04:28:28;10.50;99.90
59923;DHT22;45778;51.142;3.732;2023-12-28T04:30:53;10.50;99.90
59923;DHT22;45778;51.142;3.732;2023-12-28T04:33:19;10.50;99.90
59923;DHT22;45778;51.142;3.732;2023-12-28T04:35:45;10.60;99.90
59923;DHT22;45778;51.142;3.732;2023-12-28T04:38:11;10.60;99.90
59923;DHT22;45778;51.142;3.732;2023-12-28T04:40:36;10.70;99.90
59923;DHT22;45778;51.142;3.732;2023-12-28T04:43:02;10.70;99.90
59923;DHT22;45778;51.142;3.732;2023-12-28T04:45:28;10.70;99.90
59923;DHT22;45778;51.142;3.732;2023-12-28T04:47:54;10.70;99.90
59923;DHT22;45778;51.142;3.732;2023-12-28T04:50:20;10.80;99.90
59923;DHT22;45778;51.142;3.732;2023-12-28T04:52:45;10.70;99.90
59923;DHT22;45778;51.142;3.732;2023-12-28T04:55:11;10.60;99.90
59923;DHT22;45778;51.142;3.732;2023-12-28T04:57:37;10.60;99.90
59923;DHT22;45778;51.142;3.732;2023-12-28T05:00:03;10.60;99.90
59923;DHT22;45778;51.142;3.732;2023-12-28T05:02:29;10.60;99.90
59923;DHT22;45778;51.142;3.732;2023-12-28T05:04:55;10.50;99.90
59923;DHT22;45778;51.142;3.732;2023-12-28T05:07:20;10.50;99.90
59923;DHT22;45778;51.142;3.732;2023-12-28T05:09:46;10.40;99.90
59923;DHT22;45778;51.142;3.732;2023-12-28T05:12:11;10.40;99.90
59923;DHT22;45778;51.142;3.732;2023-12-28T05:14:37;10.30;99.90
59923;DHT22;45778;51.142;3.732;2023-12-28T05:17:03;10.40;99.90
59923;DHT22;45778;51.142;3.732;2023-12-28T05:19:29;10.30;99.90
59923;DHT22;45778;51.142;3.732;2023-12-28T05:21:55;10.40;99.90
59923;DHT22;45778;51.142;3.732;2023-12-28T05:24:20;10.40;99.90
59923;DHT22;45778;51.142;3.732;2023-12-28T05:26:46;10.40;99.90
59923;DHT22;45778;51.142;3.732;2023-12-28T05:29:12;10.50;99.90
59923;DHT22;45778;51.142;3.732;2023-12-28T05:31:37;10.50;99.90
59923;DHT22;45778;51.142;3.732;2023-12-28T05:34:03;10.50;99.90
59923;DHT22;45778;51.142;3.732;2023-12-28T05:36:30;10.50;99.90
59923;DHT22;45778;51.142;3.732;2023-12-28T05:38:56;10.50;99.90
59923;DHT22;45778;51.142;3.732;2023-12-28T05:41:21;10.50;99.90
59923;DHT22;45778;51.142;3.732;2023-12-28T05:43:47;10.50;99.90
59923;DHT22;45778;51.142;3.732;2023-12-28T05:46:13;10.50;99.90
59923;DHT22;45778;51.142;3.732;2023-12-28T05:48:39;10.50;99.90
59923;DHT22;45778;51.142;3.732;2023-12-28T05:51:05;10.50;99.90
59923;DHT22;45778;51.142;3.732;2023-12-28T05:53:30;10.50;99.90
59923;DHT22;45778;51.142;3.732;2023-12-28T05:55:56;10.50;99.90
59923;DHT22;45778;51.142;3.732;2023-12-28T05:58:21;10.50;99.90
59923;DHT22;45778;51.142;3.732;2023-12-28T06:00:47;10.50;99.90
59923;DHT22;45778;51.142;3.732;2023-12-28T06:03:13;10.50;99.90
59923;DHT22;45778;51.142;3.732;2023-12-28T06:05:39;10.40;99.90
59923;DHT22;45778;51.142;3.732;2023-12-28T06:08:05;10.30;99.90
59923;DHT22;45778;51.142;3.732;2023-12-28T06:10:31;10.30;99.90
59923;DHT22;45778;51.142;3.732;2023-12-28T06:12:56;10.30;99.90
59923;DHT22;45778;51.142;3.732;2023-12-28T06:15:22;10.30;99.90
59923;DHT22;45778;51.142;3.732;2023-12-28T06:17:50;10.30;99.90
59923;DHT22;45778;51.142;3.732;2023-12-28T06:20:16;10.20;99.90
59923;DHT22;45778;51.142;3.732;2023-12-28T06:22:41;10.20;99.90
59923;DHT22;45778;51.142;3.732;2023-12-28T06:25:08;10.10;99.90
59923;DHT22;45778;51.142;3.732;2023-12-28T06:27:33;10.10;99.90
59923;DHT22;45778;51.142;3.732;2023-12-28T06:29:59;10.10;99.90
59923;DHT22;45778;51.142;3.732;2023-12-28T06:32:25;10.00;99.90
59923;DHT22;45778;51.142;3.732;2023-12-28T06:34:50;10.00;99.90
59923;DHT22;45778;51.142;3.732;2023-12-28T06:37:16;10.10;99.90
59923;DHT22;45778;51.142;3.732;2023-12-28T06:39:41;10.10;99.90
59923;DHT22;45778;51.142;3.732;2023-12-28T06:42:09;10.10;99.90
59923;DHT22;45778;51.142;3.732;2023-12-28T06:44:34;10.10;99.90
59923;DHT22;45778;51.142;3.732;2023-12-28T06:47:00;10.10;99.90
59923;DHT22;45778;51.142;3.732;2023-12-28T06:49:26;10.10;99.90
59923;DHT22;45778;51.142;3.732;2023-12-28T06:51:51;10.00;99.90
59923;DHT22;45778;51.142;3.732;2023-12-28T06:54:17;10.00;99.90
59923;DHT22;45778;51.142;3.732;2023-12-28T06:56:43;10.00;99.90
59923;DHT22;45778;51.142;3.732;2023-12-28T06:59:09;10.00;99.90
59923;DHT22;45778;51.142;3.732;2023-12-28T07:01:40;10.10;99.90
59923;DHT22;45778;51.142;3.732;2023-12-28T07:04:06;10.10;99.90
59923;DHT22;45778;51.142;3.732;2023-12-28T07:06:32;10.00;99.90
59923;DHT22;45778;51.142;3.732;2023-12-28T07:08:58;10.00;99.90
59923;DHT22;45778;51.142;3.732;2023-12-28T07:11:23;10.00;99.90
59923;DHT22;45778;51.142;3.732;2023-12-28T07:13:49;10.10;99.90
59923;DHT22;45778;51.142;3.732;2023-12-28T07:16:15;10.10;99.90
59923;DHT22;45778;51.142;3.732;2023-12-28T07:18:43;10.10;99.90
59923;DHT22;45778;51.142;3.732;2023-12-28T07:21:09;10.10;99.90
59923;DHT22;45778;51.142;3.732;2023-12-28T07:23:37;10.20;99.90
59923;DHT22;45778;51.142;3.732;2023-12-28T07:26:04;10.20;99.90
59923;DHT22;45778;51.142;3.732;2023-12-28T07:28:30;10.20;99.90
59923;DHT22;45778;51.142;3.732;2023-12-28T07:30:56;10.30;99.90
59923;DHT22;45778;51.142;3.732;2023-12-28T07:33:21;10.20;99.90
59923;DHT22;45778;51.142;3.732;2023-12-28T07:35:47;10.20;99.90
59923;DHT22;45778;51.142;3.732;2023-12-28T07:38:13;10.20;99.90
59923;DHT22;45778;51.142;3.732;2023-12-28T07:40:39;10.20;99.90
59923;DHT22;45778;51.142;3.732;2023-12-28T07:43:05;10.20;99.90
59923;DHT22;45778;51.142;3.732;2023-12-28T07:45:30;10.20;99.90
59923;DHT22;45778;51.142;3.732;2023-12-28T07:47:58;10.10;99.90
59923;DHT22;45778;51.142;3.732;2023-12-28T07:50:24;10.10;99.90
59923;DHT22;45778;51.142;3.732;2023-12-28T07:52:50;10.10;99.90
59923;DHT22;45778;51.142;3.732;2023-12-28T07:55:17;10.10;99.90
59923;DHT22;45778;51.142;3.732;2023-12-28T07:57:43;10.10;99.90
59923;DHT22;45778;51.142;3.732;2023-12-28T08:00:09;10.10;99.90
59923;DHT22;45778;51.142;3.732;2023-12-28T08:02:35;10.10;99.90
59923;DHT22;45778;51.142;3.732;2023-12-28T08:05:01;10.10;99.90
59923;DHT22;45778;51.142;3.732;2023-12-28T08:07:26;10.20;99.90
59923;DHT22;45778;51.142;3.732;2023-12-28T08:09:52;10.20;99.90
59923;DHT22;45778;51.142;3.732;2023-12-28T08:12:19;10.20;99.90
59923;DHT22;45778;51.142;3.732;2023-12-28T08:14:47;10.20;99.90
59923;DHT22;45778;51.142;3.732;2023-12-28T08:17:13;10.20;99.90
59923;DHT22;45778;51.142;3.732;2023-12-28T08:19:38;10.30;99.90
59923;DHT22;45778;51.142;3.732;2023-12-28T08:22:04;10.30;99.90
59923;DHT22;45778;51.142;3.732;2023-12-28T08:24:30;10.30;99.90
59923;DHT22;45778;51.142;3.732;2023-12-28T08:26:56;10.30;99.90
59923;DHT22;45778;51.142;3.732;2023-12-28T08:29:26;10.30;99.90
59923;DHT22;45778;51.142;3.732;2023-12-28T08:31:51;10.30;99.90
59923;DHT22;45778;51.142;3.732;2023-12-28T08:34:17;10.30;99.90
59923;DHT22;45778;51.142;3.732;2023-12-28T08:36:43;10.30;99.90
59923;DHT22;45778;51.142;3.732;2023-12-28T08:39:09;10.30;99.90
59923;DHT22;45778;51.142;3.732;2023-12-28T08:41:34;10.40;99.90
59923;DHT22;45778;51.142;3.732;2023-12-28T08:44:00;10.30;99.90
59923;DHT22;45778;51.142;3.732;2023-12-28T08:46:26;10.40;99.90
59923;DHT22;45778;51.142;3.732;2023-12-28T08:48:52;10.40;99.90
59923;DHT22;45778;51.142;3.732;2023-12-28T08:51:18;10.40;99.90
59923;DHT22;45778;51.142;3.732;2023-12-28T08:53:43;10.50;99.90
59923;DHT22;45778;51.142;3.732;2023-12-28T08:56:22;10.40;99.90
59923;DHT22;45778;51.142;3.732;2023-12-28T08:58:48;10.40;99.90
59923;DHT22;45778;51.142;3.732;2023-12-28T09:01:24;10.50;99.90
59923;DHT22;45778;51.142;3.732;2023-12-28T09:03:55;10.50;99.90
59923;DHT22;45778;51.142;3.732;2023-12-28T09:06:21;10.50;99.90
59923;DHT22;45778;51.142;3.732;2023-12-28T09:08:51;10.60;99.90
59923;DHT22;45778;51.142;3.732;2023-12-28T09:11:18;10.60;99.90
59923;DHT22;45778;51.142;3.732;2023-12-28T09:13:44;10.60;99.90
59923;DHT22;45778;51.142;3.732;2023-12-28T09:16:14;10.60;99.90
59923;DHT22;45778;51.142;3.732;2023-12-28T09:18:41;10.70;99.90
59923;DHT22;45778;51.142;3.732;2023-12-28T09:21:07;10.70;99.90
59923;DHT22;45778;51.142;3.732;2023-12-28T09:23:34;10.70;99.90
59923;DHT22;45778;51.142;3.732;2023-12-28T09:26:01;10.70;99.90
59923;DHT22;45778;51.142;3.732;2023-12-28T09:28:28;10.70;99.90
59923;DHT22;45778;51.142;3.732;2023-12-28T09:30:54;10.70;99.90
59923;DHT22;45778;51.142;3.732;2023-12-28T09:33:20;10.70;99.90
59923;DHT22;45778;51.142;3.732;2023-12-28T09:35:46;10.70;99.90
59923;DHT22;45778;51.142;3.732;2023-12-28T09:38:12;10.70;99.90
59923;DHT22;45778;51.142;3.732;2023-12-28T09:40:42;10.70;99.90
59923;DHT22;45778;51.142;3.732;2023-12-28T09:43:31;10.80;99.90
59923;DHT22;45778;51.142;3.732;2023-12-28T09:46:07;10.80;99.90
59923;DHT22;45778;51.142;3.732;2023-12-28T09:48:33;10.80;99.90
59923;DHT22;45778;51.142;3.732;2023-12-28T09:51:00;10.80;99.90
59923;DHT22;45778;51.142;3.732;2023-12-28T09:53:26;10.80;99.90
59923;DHT22;45778;51.142;3.732;2023-12-28T09:55:52;10.90;99.90
59923;DHT22;45778;51.142;3.732;2023-12-28T09:58:20;10.90;99.90
59923;DHT22;45778;51.142;3.732;2023-12-28T10:00:47;10.90;99.90
59923;DHT22;45778;51.142;3.732;2023-12-28T10:03:13;11.00;99.90
59923;DHT22;45778;51.142;3.732;2023-12-28T10:05:44;11.00;99.90
59923;DHT22;45778;51.142;3.732;2023-12-28T10:08:14;11.00;99.90
59923;DHT22;45778;51.142;3.732;2023-12-28T10:10:44;11.10;99.90
59923;DHT22;45778;51.142;3.732;2023-12-28T10:13:16;11.10;99.90
59923;DHT22;45778;51.142;3.732;2023-12-28T10:15:43;11.10;99.90
59923;DHT22;45778;51.142;3.732;2023-12-28T10:18:09;11.10;99.90
59923;DHT22;45778;51.142;3.732;2023-12-28T10:20:34;11.10;99.90
59923;DHT22;45778;51.142;3.732;2023-12-28T10:23:00;11.20;99.90
59923;DHT22;45778;51.142;3.732;2023-12-28T10:25:30;11.20;99.90
59923;DHT22;45778;51.142;3.732;2023-12-28T10:27:55;11.20;99.90
59923;DHT22;45778;51.142;3.732;2023-12-28T10:30:21;11.20;99.90
59923;DHT22;45778;51.142;3.732;2023-12-28T10:32:47;11.20;99.90
59923;DHT22;45778;51.142;3.732;2023-12-28T10:35:13;11.10;99.90
59923;DHT22;45778;51.142;3.732;2023-12-28T10:37:42;11.10;99.90
59923;DHT22;45778;51.142;3.732;2023-12-28T10:40:14;11.10;99.90
59923;DHT22;45778;51.142;3.732;2023-12-28T10:42:52;11.10;99.90
59923;DHT22;45778;51.142;3.732;2023-12-28T10:45:20;11.20;99.90
59923;DHT22;45778;51.142;3.732;2023-12-28T10:48:12;11.20;99.90
59923;DHT22;45778;51.142;3.732;2023-12-28T10:50:43;11.20;99.90
59923;DHT22;45778;51.142;3.732;2023-12-28T10:58:39;11.20;99.90
59923;DHT22;45778;51.142;3.732;2023-12-28T11:01:07;11.20;99.90
59923;DHT22;45778;51.142;3.732;2023-12-28T11:03:37;11.30;99.90
59923;DHT22;45778;51.142;3.732;2023-12-28T11:06:04;11.30;99.90
59923;DHT22;45778;51.142;3.732;2023-12-28T11:08:32;11.30;99.90
59923;DHT22;45778;51.142;3.732;2023-12-28T11:10:59;11.40;99.90
59923;DHT22;45778;51.142;3.732;2023-12-28T11:13:29;11.50;99.90
59923;DHT22;45778;51.142;3.732;2023-12-28T11:15:56;11.40;99.90
59923;DHT22;45778;51.142;3.732;2023-12-28T11:18:24;11.40;99.90
59923;DHT22;45778;51.142;3.732;2023-12-28T11:20:51;11.40;99.90
59923;DHT22;45778;51.142;3.732;2023-12-28T11:23:17;11.40;99.90
59923;DHT22;45778;51.142;3.732;2023-12-28T11:25:43;11.40;99.90
59923;DHT22;45778;51.142;3.732;2023-12-28T11:28:09;11.50;99.90
59923;DHT22;45778;51.142;3.732;2023-12-28T11:30:36;11.50;99.90
59923;DHT22;45778;51.142;3.732;2023-12-28T11:33:04;11.50;99.90
59923;DHT22;45778;51.142;3.732;2023-12-28T11:35:40;11.50;99.90
59923;DHT22;45778;51.142;3.732;2023-12-28T11:38:10;11.50;99.90
59923;DHT22;45778;51.142;3.732;2023-12-28T11:40:40;11.50;99.90
59923;DHT22;45778;51.142;3.732;2023-12-28T11:43:15;11.50;99.90
59923;DHT22;45778;51.142;3.732;2023-12-28T11:45:55;11.50;99.90
59923;DHT22;45778;51.142;3.732;2023-12-28T11:48:25;11.50;99.90
59923;DHT22;45778;51.142;3.732;2023-12-28T11:50:59;11.60;99.90
59923;DHT22;45778;51.142;3.732;2023-12-28T11:53:28;11.60;99.90
59923;DHT22;45778;51.142;3.732;2023-12-28T11:56:00;11.60;99.90
59923;DHT22;45778;51.142;3.732;2023-12-28T11:58:27;11.70;99.90
59923;DHT22;45778;51.142;3.732;2023-12-28T12:00:53;11.60;99.90
59923;DHT22;45778;51.142;3.732;2023-12-28T12:03:19;11.70;99.90
59923;DHT22;45778;51.142;3.732;2023-12-28T12:05:46;11.70;99.90
59923;DHT22;45778;51.142;3.732;2023-12-28T12:08:15;11.80;99.90
59923;DHT22;45778;51.142;3.732;2023-12-28T12:10:41;11.80;99.90
59923;DHT22;45778;51.142;3.732;2023-12-28T12:13:08;11.90;99.90
59923;DHT22;45778;51.142;3.732;2023-12-28T12:15:34;11.90;99.90
59923;DHT22;45778;51.142;3.732;2023-12-28T12:18:03;11.90;99.90
59923;DHT22;45778;51.142;3.732;2023-12-28T12:20:29;11.90;99.90
59923;DHT22;45778;51.142;3.732;2023-12-28T12:22:59;11.90;99.90
59923;DHT22;45778;51.142;3.732;2023-12-28T12:25:26;12.00;99.90
59923;DHT22;45778;51.142;3.732;2023-12-28T12:27:52;12.10;99.90
59923;DHT22;45778;51.142;3.732;2023-12-28T12:30:19;12.20;99.90
59923;DHT22;45778;51.142;3.732;2023-12-28T12:32:45;12.20;99.90
59923;DHT22;45778;51.142;3.732;2023-12-28T12:35:11;12.10;99.90
59923;DHT22;45778;51.142;3.732;2023-12-28T12:37:37;12.20;99.90
59923;DHT22;45778;51.142;3.732;2023-12-28T12:40:07;12.20;99.90
59923;DHT22;45778;51.142;3.732;2023-12-28T12:42:33;12.00;99.90
59923;DHT22;45778;51.142;3.732;2023-12-28T12:44:59;11.90;99.90
59923;DHT22;45778;51.142;3.732;2023-12-28T12:47:25;12.00;99.90
59923;DHT22;45778;51.142;3.732;2023-12-28T12:49:55;12.00;99.90
59923;DHT22;45778;51.142;3.732;2023-12-28T12:52:25;11.90;99.90
59923;DHT22;45778;51.142;3.732;2023-12-28T12:54:56;11.90;99.90
59923;DHT22;45778;51.142;3.732;2023-12-28T12:57:22;11.90;99.90
59923;DHT22;45778;51.142;3.732;2023-12-28T12:59:48;11.90;99.90
59923;DHT22;45778;51.142;3.732;2023-12-28T13:02:15;11.90;99.90
59923;DHT22;45778;51.142;3.732;2023-12-28T13:04:42;12.00;99.90
59923;DHT22;45778;51.142;3.732;2023-12-28T13:07:08;11.90;99.90
59923;DHT22;45778;51.142;3.732;2023-12-28T13:09:34;11.90;99.90
59923;DHT22;45778;51.142;3.732;2023-12-28T13:12:01;11.90;99.90
59923;DHT22;45778;51.142;3.732;2023-12-28T13:14:28;11.90;99.90
59923;DHT22;45778;51.142;3.732;2023-12-28T13:16:55;12.00;99.90
59923;DHT22;45778;51.142;3.732;2023-12-28T13:19:21;11.90;99.90
59923;DHT22;45778;51.142;3.732;2023-12-28T13:21:47;11.90;99.90
59923;DHT22;45778;51.142;3.732;2023-12-28T13:24:12;11.90;99.90
59923;DHT22;45778;51.142;3.732;2023-12-28T13:26:38;11.90;99.90
59923;DHT22;45778;51.142;3.732;2023-12-28T13:29:04;11.80;99.90
59923;DHT22;45778;51.142;3.732;2023-12-28T13:31:29;11.80;99.90
59923;DHT22;45778;51.142;3.732;2023-12-28T13:33:55;11.80;99.90
59923;DHT22;45778;51.142;3.732;2023-12-28T13:36:21;11.90;99.90
59923;DHT22;45778;51.142;3.732;2023-12-28T13:38:47;11.90;99.90
59923;DHT22;45778;51.142;3.732;2023-12-28T13:41:13;11.90;99.90
59923;DHT22;45778;51.142;3.732;2023-12-28T13:43:39;11.90;99.90
59923;DHT22;45778;51.142;3.732;2023-12-28T13:46:05;11.80;99.90
59923;DHT22;45778;51.142;3.732;2023-12-28T13:48:31;11.80;99.90
59923;DHT22;45778;51.142;3.732;2023-12-28T13:50:56;11.80;99.90
59923;DHT22;45778;51.142;3.732;2023-12-28T13:53:22;11.80;99.90
59923;DHT22;45778;51.142;3.732;2023-12-28T13:55:48;11.80;99.90
59923;DHT22;45778;51.142;3.732;2023-12-28T13:58:14;11.80;99.90
59923;DHT22;45778;51.142;3.732;2023-12-28T14:00:40;11.70;99.90
59923;DHT22;45778;51.142;3.732;2023-12-28T14:03:06;11.70;99.90
59923;DHT22;45778;51.142;3.732;2023-12-28T14:05:31;11.90;99.90
59923;DHT22;45778;51.142;3.732;2023-12-28T14:07:57;11.90;99.90
59923;DHT22;45778;51.142;3.732;2023-12-28T14:10:23;11.90;99.90
59923;DHT22;45778;51.142;3.732;2023-12-28T14:12:49;11.90;99.90
59923;DHT22;45778;51.142;3.732;2023-12-28T14:15:15;11.90;99.90
59923;DHT22;45778;51.142;3.732;2023-12-28T14:17:41;12.10;99.90
59923;DHT22;45778;51.142;3.732;2023-12-28T14:20:08;12.10;99.90
59923;DHT22;45778;51.142;3.732;2023-12-28T14:22:38;12.10;99.90
59923;DHT22;45778;51.142;3.732;2023-12-28T14:25:04;12.00;99.90
59923;DHT22;45778;51.142;3.732;2023-12-28T14:27:30;12.00;99.90
59923;DHT22;45778;51.142;3.732;2023-12-28T14:29:57;12.00;99.90
59923;DHT22;45778;51.142;3.732;2023-12-28T14:32:24;12.00;99.90
59923;DHT22;45778;51.142;3.732;2023-12-28T14:34:50;11.90;99.90
59923;DHT22;45778;51.142;3.732;2023-12-28T14:37:16;11.90;99.90
59923;DHT22;45778;51.142;3.732;2023-12-28T14:39:43;11.90;99.90
59923;DHT22;45778;51.142;3.732;2023-12-28T14:42:08;11.80;99.90
59923;DHT22;45778;51.142;3.732;2023-12-28T14:44:35;11.80;99.90
59923;DHT22;45778;51.142;3.732;2023-12-28T14:47:00;11.90;99.90
59923;DHT22;45778;51.142;3.732;2023-12-28T14:49:26;11.80;99.90
59923;DHT22;45778;51.142;3.732;2023-12-28T14:51:51;11.80;99.90
59923;DHT22;45778;51.142;3.732;2023-12-28T14:54:17;11.80;99.90
59923;DHT22;45778;51.142;3.732;2023-12-28T14:56:43;11.80;99.90
59923;DHT22;45778;51.142;3.732;2023-12-28T14:59:08;11.80;99.90
59923;DHT22;45778;51.142;3.732;2023-12-28T15:01:34;11.80;99.90
59923;DHT22;45778;51.142;3.732;2023-12-28T15:03:59;11.80;99.90
59923;DHT22;45778;51.142;3.732;2023-12-28T15:06:25;11.70;99.90
59923;DHT22;45778;51.142;3.732;2023-12-28T15:08:51;11.80;99.90
59923;DHT22;45778;51.142;3.732;2023-12-28T15:11:17;11.70;99.90
59923;DHT22;45778;51.142;3.732;2023-12-28T15:13:43;11.70;99.90
59923;DHT22;45778;51.142;3.732;2023-12-28T15:16:10;11.70;99.90
59923;DHT22;45778;51.142;3.732;2023-12-28T15:18:36;11.60;99.90
59923;DHT22;45778;51.142;3.732;2023-12-28T15:21:02;11.60;99.90
59923;DHT22;45778;51.142;3.732;2023-12-28T15:23:29;11.60;99.90
59923;DHT22;45778;51.142;3.732;2023-12-28T15:25:55;11.50;99.90
59923;DHT22;45778;51.142;3.732;2023-12-28T15:28:21;11.50;99.90
59923;DHT22;45778;51.142;3.732;2023-12-28T15:30:47;11.50;99.90
59923;DHT22;45778;51.142;3.732;2023-12-28T15:33:13;11.50;99.90